createdAt,value
2022-11-16T00:01:41.642Z,11.26
2022-11-16T00:04:14.721Z,11.25
2022-11-16T00:06:42.634Z,11.26
2022-11-16T00:09:27.089Z,11.26
2022-11-16T00:11:58.236Z,11.25
2022-11-16T00:14:27.824Z,11.26
2022-11-16T00:16:56.198Z,11.28
2022-11-16T00:19:24.622Z,11.29
2022-11-16T00:21:52.644Z,11.31
2022-11-16T00:24:21.952Z,11.32
2022-11-16T00:26:50.835Z,11.32
2022-11-16T00:29:21.983Z,11.34
2022-11-16T00:31:50.280Z,11.34
2022-11-16T00:34:18.660Z,11.34
2022-11-16T00:36:46.756Z,11.33
2022-11-16T00:39:16.031Z,11.35
2022-11-16T00:41:44.799Z,11.37
2022-11-16T00:44:13.041Z,11.36
2022-11-16T00:46:42.336Z,11.37
2022-11-16T00:49:10.575Z,11.39
2022-11-16T00:51:38.942Z,11.41
2022-11-16T00:54:08.453Z,11.42
2022-11-16T00:56:36.517Z,11.42
2022-11-16T00:59:04.372Z,11.42
2022-11-16T01:01:32.103Z,11.43
2022-11-16T01:04:01.163Z,11.42
2022-11-16T01:06:28.829Z,11.41
2022-11-16T01:08:56.518Z,11.40
2022-11-16T01:11:41.573Z,11.41
2022-11-16T01:14:10.271Z,11.41
2022-11-16T01:16:37.967Z,11.43
2022-11-16T01:19:07.497Z,11.42
2022-11-16T01:21:35.599Z,11.42
2022-11-16T01:24:03.532Z,11.43
2022-11-16T01:26:31.126Z,11.48
2022-11-16T01:28:59.781Z,11.40
2022-11-16T01:31:27.475Z,11.41
2022-11-16T01:33:55.496Z,11.43
2022-11-16T01:36:24.320Z,11.48
2022-11-16T01:38:52.238Z,11.43
2022-11-16T01:41:21.470Z,11.46
2022-11-16T01:43:52.396Z,11.46
2022-11-16T01:46:20.235Z,11.45
2022-11-16T01:48:48.804Z,11.47
2022-11-16T01:51:16.807Z,11.49
2022-11-16T01:53:45.897Z,11.54
2022-11-16T01:56:13.606Z,11.46
2022-11-16T01:58:42.344Z,11.49
2022-11-16T02:01:09.992Z,11.48
2022-11-16T02:03:39.132Z,11.51
2022-11-16T02:06:33.284Z,11.53
2022-11-16T02:09:37.724Z,11.52
2022-11-16T02:12:28.593Z,11.49
2022-11-16T02:15:10.562Z,11.49
2022-11-16T02:17:47.695Z,11.47
2022-11-16T02:20:45.314Z,11.49
2022-11-16T02:23:37.398Z,11.48
2022-11-16T02:26:23.386Z,11.48
2022-11-16T02:29:08.028Z,11.48
2022-11-16T02:31:40.110Z,11.47
2022-11-16T02:34:11.576Z,11.48
2022-11-16T02:36:41.537Z,11.46
2022-11-16T02:39:15.754Z,11.45
2022-11-16T02:41:47.603Z,11.47
2022-11-16T02:44:20.892Z,11.48
2022-11-16T02:46:53.520Z,11.48
2022-11-16T02:49:22.680Z,11.48
2022-11-16T02:51:51.826Z,11.47
2022-11-16T02:54:21.669Z,11.48
2022-11-16T02:56:54.969Z,11.48
2022-11-16T02:59:28.767Z,11.49
2022-11-16T03:02:05.097Z,11.49
2022-11-16T03:04:37.924Z,11.49
2022-11-16T03:07:10.981Z,11.49
2022-11-16T03:09:39.908Z,11.48
2022-11-16T03:12:09.772Z,11.49
2022-11-16T03:14:44.590Z,11.49
2022-11-16T03:17:17.065Z,11.46
2022-11-16T03:19:50.079Z,11.46
2022-11-16T03:22:24.285Z,11.46
2022-11-16T03:24:52.098Z,11.45
2022-11-16T03:27:28.838Z,11.47
2022-11-16T03:30:05.561Z,11.48
2022-11-16T03:32:40.196Z,11.46
2022-11-16T03:35:15.561Z,11.46
2022-11-16T03:37:46.568Z,11.44
2022-11-16T03:40:16.188Z,11.43
2022-11-16T03:42:45.754Z,11.42
2022-11-16T03:45:15.139Z,11.40
2022-11-16T03:47:42.825Z,11.39
2022-11-16T03:50:11.149Z,11.37
2022-11-16T03:52:39.495Z,11.35
2022-11-16T03:55:07.700Z,11.35
2022-11-16T03:57:35.344Z,11.35
2022-11-16T04:00:03.024Z,11.33
2022-11-16T04:02:32.005Z,11.30
2022-11-16T04:05:17.342Z,11.28
2022-11-16T04:08:02.625Z,11.27
2022-11-16T04:11:02.416Z,11.23
2022-11-16T04:13:50.675Z,11.20
2022-11-16T04:16:35.730Z,11.20
2022-11-16T04:19:22.381Z,11.12
2022-11-16T04:22:10.296Z,11.10
2022-11-16T04:24:41.002Z,11.06
2022-11-16T04:27:29.124Z,11.03
2022-11-16T04:29:58.483Z,11.01
2022-11-16T04:32:42.926Z,11.00
2022-11-16T04:35:31.677Z,10.98
2022-11-16T04:38:00.592Z,10.94
2022-11-16T04:40:29.562Z,10.91
2022-11-16T04:42:58.986Z,10.89
2022-11-16T04:45:46.032Z,10.84
2022-11-16T04:48:14.945Z,10.82
2022-11-16T04:50:44.245Z,10.80
2022-11-16T04:53:12.471Z,10.76
2022-11-16T04:55:40.205Z,10.74
2022-11-16T04:58:07.903Z,10.73
2022-11-16T05:00:35.561Z,10.75
2022-11-16T05:03:04.773Z,10.73
2022-11-16T05:05:32.520Z,10.73
2022-11-16T05:08:01.540Z,10.71
2022-11-16T05:10:29.188Z,10.70
2022-11-16T05:12:56.896Z,10.68
2022-11-16T05:15:24.527Z,10.69
2022-11-16T05:17:54.856Z,10.70
2022-11-16T05:20:39.930Z,10.69
2022-11-16T05:23:29.594Z,10.70
2022-11-16T05:25:57.239Z,10.65
2022-11-16T05:28:24.905Z,10.64
2022-11-16T05:30:52.590Z,10.62
2022-11-16T05:33:20.216Z,10.60
2022-11-16T05:35:50.603Z,10.59
2022-11-16T05:38:19.589Z,10.54
2022-11-16T05:40:47.285Z,10.55
2022-11-16T05:43:14.921Z,10.54
2022-11-16T05:45:44.121Z,10.49
2022-11-16T05:48:11.925Z,10.44
2022-11-16T05:50:42.723Z,10.38
2022-11-16T05:53:10.900Z,10.38
2022-11-16T05:55:39.882Z,10.34
2022-11-16T05:58:07.511Z,10.30
2022-11-16T06:00:35.177Z,10.28
2022-11-16T06:03:02.878Z,10.25
2022-11-16T06:05:30.568Z,10.24
2022-11-16T06:07:58.208Z,10.25
2022-11-16T06:10:25.840Z,10.22
2022-11-16T06:12:54.881Z,10.21
2022-11-16T06:15:22.627Z,10.20
2022-11-16T06:17:50.281Z,10.18
2022-11-16T06:20:18.385Z,10.16
2022-11-16T06:22:46.108Z,10.14
2022-11-16T06:25:13.787Z,10.14
2022-11-16T06:27:41.522Z,10.12
2022-11-16T06:30:11.094Z,10.09
2022-11-16T06:32:38.906Z,10.07
2022-11-16T06:35:07.518Z,10.06
2022-11-16T06:37:35.456Z,10.04
2022-11-16T06:40:03.181Z,10.01
2022-11-16T06:42:30.812Z,9.98
2022-11-16T06:44:58.478Z,9.95
2022-11-16T06:47:27.493Z,9.90
2022-11-16T06:49:55.177Z,9.88
2022-11-16T06:52:22.816Z,9.82
2022-11-16T06:54:50.524Z,9.79
2022-11-16T06:57:18.469Z,9.74
2022-11-16T06:59:46.144Z,9.70
2022-11-16T07:02:14.095Z,9.66
2022-11-16T07:04:44.365Z,9.62
2022-11-16T07:07:12.011Z,9.59
2022-11-16T07:09:39.722Z,9.55
2022-11-16T07:12:07.794Z,9.52
2022-11-16T07:14:35.297Z,9.51
2022-11-16T07:17:08.010Z,9.45
2022-11-16T07:19:40.316Z,9.42
2022-11-16T07:22:09.328Z,9.39
2022-11-16T07:24:36.974Z,9.36
2022-11-16T07:27:04.699Z,9.34
2022-11-16T07:29:32.326Z,9.31
2022-11-16T07:31:59.989Z,9.30
2022-11-16T07:34:27.823Z,9.27
2022-11-16T07:36:55.511Z,9.26
2022-11-16T07:39:24.485Z,9.25
2022-11-16T07:41:53.579Z,9.25
2022-11-16T07:44:21.655Z,9.24
2022-11-16T07:46:49.191Z,9.26
2022-11-16T07:49:20.120Z,9.22
2022-11-16T07:51:48.087Z,9.22
2022-11-16T07:54:17.009Z,9.23
2022-11-16T07:56:46.372Z,9.24
2022-11-16T07:59:14.121Z,9.24
2022-11-16T08:01:41.862Z,9.24
2022-11-16T08:04:09.572Z,9.24
2022-11-16T08:06:37.208Z,9.25
2022-11-16T08:09:04.931Z,9.25
2022-11-16T08:11:32.622Z,9.26
2022-11-16T08:14:01.656Z,9.29
2022-11-16T08:16:33.162Z,9.30
2022-11-16T08:19:00.968Z,9.34
2022-11-16T08:21:28.728Z,9.38
2022-11-16T08:23:58.736Z,9.43
2022-11-16T08:26:27.630Z,9.47
2022-11-16T08:28:56.623Z,9.54
2022-11-16T08:31:27.632Z,9.64
2022-11-16T08:33:56.444Z,9.76
2022-11-16T08:36:24.364Z,9.87
2022-11-16T08:38:53.064Z,10.00
2022-11-16T08:41:21.412Z,10.12
2022-11-16T08:43:50.569Z,10.26
2022-11-16T08:46:18.741Z,10.38
2022-11-16T08:48:47.547Z,10.47
2022-11-16T08:51:19.488Z,10.57
2022-11-16T08:53:48.993Z,10.71
2022-11-16T08:56:18.661Z,10.80
2022-11-16T08:58:47.135Z,10.96
2022-11-16T09:01:17.586Z,11.03
2022-11-16T09:03:47.605Z,11.14
2022-11-16T09:06:16.261Z,11.24
2022-11-16T09:08:45.873Z,11.37
2022-11-16T09:11:15.851Z,11.49
2022-11-16T09:13:44.192Z,11.56
2022-11-16T09:16:12.307Z,11.80
2022-11-16T09:18:40.622Z,11.91
2022-11-16T09:21:09.831Z,11.92
2022-11-16T09:23:37.664Z,11.89
2022-11-16T09:26:06.575Z,11.88
2022-11-16T09:28:34.800Z,11.90
2022-11-16T09:31:06.093Z,12.06
2022-11-16T09:33:35.043Z,12.20
2022-11-16T09:36:06.810Z,12.40
2022-11-16T09:38:55.725Z,12.52
2022-11-16T09:41:45.223Z,12.55
2022-11-16T09:44:21.410Z,12.55
2022-11-16T09:46:55.148Z,12.47
2022-11-16T09:49:27.084Z,12.37
2022-11-16T09:52:00.279Z,12.38
2022-11-16T09:54:35.099Z,12.37
2022-11-16T09:57:12.182Z,12.50
2022-11-16T09:59:45.065Z,12.83
2022-11-16T10:02:22.172Z,12.93
2022-11-16T10:04:58.483Z,13.14
2022-11-16T10:07:32.548Z,13.21
2022-11-16T10:10:01.728Z,13.22
2022-11-16T10:12:37.617Z,13.40
2022-11-16T10:15:17.445Z,13.44
2022-11-16T10:17:57.664Z,13.34
2022-11-16T10:21:02.035Z,13.28
2022-11-16T10:23:41.566Z,13.49
2022-11-16T10:26:22.338Z,13.61
2022-11-16T10:29:17.024Z,13.76
2022-11-16T10:31:57.996Z,14.19
2022-11-16T10:34:28.023Z,14.42
2022-11-16T10:37:03.301Z,14.52
2022-11-16T10:39:33.971Z,14.59
2022-11-16T10:42:07.820Z,14.78
2022-11-16T10:44:39.767Z,15.03
2022-11-16T10:47:16.325Z,14.66
2022-11-16T10:49:52.801Z,14.54
2022-11-16T10:52:20.880Z,14.49
2022-11-16T10:54:48.518Z,14.51
2022-11-16T10:57:17.864Z,14.58
2022-11-16T10:59:47.678Z,14.68
2022-11-16T11:02:31.006Z,15.17
2022-11-16T11:05:17.452Z,15.28
2022-11-16T11:07:54.052Z,15.09
2022-11-16T11:10:35.381Z,15.06
2022-11-16T11:13:08.054Z,15.44
2022-11-16T11:15:35.813Z,15.24
2022-11-16T11:18:29.771Z,15.16
2022-11-16T11:21:10.141Z,15.69
2022-11-16T11:23:44.997Z,15.45
2022-11-16T11:26:34.760Z,16.01
2022-11-16T11:29:17.800Z,16.61
2022-11-16T11:31:47.275Z,17.45
2022-11-16T11:34:18.881Z,18.01
2022-11-16T11:36:50.327Z,18.49
2022-11-16T11:39:31.841Z,18.69
2022-11-16T11:42:06.428Z,18.98
2022-11-16T11:44:49.188Z,18.76
2022-11-16T11:47:57.266Z,19.04
2022-11-16T11:50:36.126Z,19.27
2022-11-16T11:53:07.931Z,19.85
2022-11-16T11:55:35.709Z,20.03
2022-11-16T11:58:04.970Z,19.93
2022-11-16T12:00:42.251Z,19.32
2022-11-16T12:03:37.117Z,17.87
2022-11-16T12:06:10.828Z,16.71
2022-11-16T12:09:09.223Z,15.99
2022-11-16T12:11:49.631Z,15.42
2022-11-16T12:14:29.929Z,14.90
2022-11-16T12:17:08.393Z,14.76
2022-11-16T12:19:56.249Z,14.57
2022-11-16T12:22:41.165Z,14.18
2022-11-16T12:25:20.732Z,13.93
2022-11-16T12:27:57.759Z,13.84
2022-11-16T12:30:25.931Z,13.84
2022-11-16T12:33:16.691Z,13.86
2022-11-16T12:35:57.148Z,13.85
2022-11-16T12:38:38.279Z,13.78
2022-11-16T12:41:31.457Z,13.84
2022-11-16T12:44:02.069Z,13.95
2022-11-16T12:46:41.024Z,14.83
2022-11-16T12:49:41.929Z,15.73
2022-11-16T12:52:22.935Z,16.46
2022-11-16T12:55:28.223Z,16.79
2022-11-16T12:58:13.983Z,17.33
2022-11-16T13:00:54.172Z,17.60
2022-11-16T13:03:29.057Z,17.53
2022-11-16T13:06:03.199Z,17.40
2022-11-16T13:08:39.569Z,17.50
2022-11-16T13:11:12.533Z,17.53
2022-11-16T13:13:42.049Z,17.69
2022-11-16T13:16:11.777Z,17.79
2022-11-16T13:18:42.611Z,18.04
2022-11-16T13:21:23.011Z,17.85
2022-11-16T13:24:03.240Z,17.91
2022-11-16T13:26:36.825Z,17.79
2022-11-16T13:29:15.392Z,17.58
2022-11-16T13:31:52.370Z,17.11
2022-11-16T13:34:25.328Z,16.87
2022-11-16T13:36:54.316Z,16.71
2022-11-16T13:39:56.845Z,16.44
2022-11-16T13:42:25.157Z,16.16
2022-11-16T13:44:54.213Z,15.70
2022-11-16T13:47:23.644Z,15.30
2022-11-16T13:49:53.684Z,15.04
2022-11-16T13:52:25.005Z,14.89
2022-11-16T13:55:13.675Z,14.49
2022-11-16T13:57:52.010Z,14.31
2022-11-16T14:00:24.613Z,14.12
2022-11-16T14:03:27.487Z,13.92
2022-11-16T14:05:55.213Z,13.78
2022-11-16T14:08:53.332Z,13.71
2022-11-16T14:11:33.085Z,13.79
2022-11-16T14:14:02.232Z,13.87
2022-11-16T14:16:54.542Z,13.98
2022-11-16T14:19:55.072Z,14.19
2022-11-16T14:22:55.153Z,14.42
2022-11-16T14:25:31.810Z,14.40
2022-11-16T14:28:10.159Z,14.19
2022-11-16T14:30:52.410Z,13.95
2022-11-16T14:33:30.299Z,13.87
2022-11-16T14:35:58.136Z,13.69
2022-11-16T14:38:29.873Z,13.58
2022-11-16T14:41:00.509Z,13.41
2022-11-16T14:43:33.871Z,13.33
2022-11-16T14:46:05.210Z,13.46
2022-11-16T14:48:33.221Z,13.56
2022-11-16T14:51:07.356Z,13.59
2022-11-16T14:53:37.612Z,13.54
2022-11-16T14:56:14.814Z,13.55
2022-11-16T14:58:52.156Z,13.52
2022-11-16T15:01:23.797Z,13.48
2022-11-16T15:03:56.817Z,13.40
2022-11-16T15:06:26.986Z,13.30
2022-11-16T15:08:58.578Z,13.23
2022-11-16T15:11:50.694Z,13.16
2022-11-16T15:14:22.160Z,13.10
2022-11-16T15:16:52.259Z,13.08
2022-11-16T15:19:20.391Z,13.05
2022-11-16T15:21:53.421Z,12.92
2022-11-16T15:24:31.104Z,12.90
2022-11-16T15:27:11.327Z,12.80
2022-11-16T15:29:39.729Z,12.75
2022-11-16T15:32:14.047Z,12.71
2022-11-16T15:34:41.739Z,12.65
2022-11-16T15:37:12.485Z,12.60
2022-11-16T15:39:40.941Z,12.55
2022-11-16T15:42:15.506Z,12.48
2022-11-16T15:44:44.092Z,12.45
2022-11-16T15:47:14.484Z,12.37
2022-11-16T15:49:44.084Z,12.29
2022-11-16T15:52:11.968Z,12.19
2022-11-16T15:54:53.427Z,12.11
2022-11-16T15:57:23.975Z,12.02
2022-11-16T15:59:54.913Z,11.94
2022-11-16T16:02:25.088Z,11.90
2022-11-16T16:04:52.850Z,11.82
2022-11-16T16:07:38.820Z,11.75
2022-11-16T16:10:15.102Z,11.72
2022-11-16T16:12:51.740Z,11.67
2022-11-16T16:15:24.719Z,11.61
2022-11-16T16:17:53.629Z,11.44
2022-11-16T16:20:24.909Z,11.39
2022-11-16T16:22:54.186Z,11.28
2022-11-16T16:25:30.433Z,11.24
2022-11-16T16:27:59.873Z,11.20
2022-11-16T16:30:29.441Z,11.11
2022-11-16T16:32:57.299Z,11.00
2022-11-16T16:35:26.514Z,10.96
2022-11-16T16:37:58.742Z,10.93
2022-11-16T16:40:26.485Z,10.91
2022-11-16T16:42:55.863Z,10.90
2022-11-16T16:45:35.330Z,10.89
2022-11-16T16:48:03.024Z,10.85
2022-11-16T16:50:30.691Z,10.85
2022-11-16T16:52:58.485Z,10.81
2022-11-16T16:55:26.181Z,10.82
2022-11-16T16:57:56.514Z,10.78
2022-11-16T17:00:24.416Z,10.73
2022-11-16T17:02:53.562Z,10.72
2022-11-16T17:05:21.252Z,10.71
2022-11-16T17:07:48.926Z,10.69
2022-11-16T17:10:17.437Z,10.64
2022-11-16T17:12:45.102Z,10.61
2022-11-16T17:15:18.018Z,10.57
2022-11-16T17:17:46.941Z,10.58
2022-11-16T17:20:17.581Z,10.55
2022-11-16T17:22:45.945Z,10.52
2022-11-16T17:25:14.875Z,10.48
2022-11-16T17:27:42.515Z,10.48
2022-11-16T17:30:11.469Z,10.44
2022-11-16T17:32:39.098Z,10.40
2022-11-16T17:35:07.048Z,10.36
2022-11-16T17:37:36.052Z,10.32
2022-11-16T17:40:08.160Z,10.31
2022-11-16T17:42:36.056Z,10.33
2022-11-16T17:45:04.462Z,10.27
2022-11-16T17:47:33.429Z,10.26
2022-11-16T17:50:01.741Z,10.24
2022-11-16T17:52:29.400Z,10.21
2022-11-16T17:54:58.380Z,10.20
2022-11-16T17:57:26.045Z,10.15
2022-11-16T17:59:53.691Z,10.13
2022-11-16T18:02:21.313Z,10.12
2022-11-16T18:04:51.239Z,10.09
2022-11-16T18:07:19.353Z,10.08
2022-11-16T18:09:47.087Z,10.08
2022-11-16T18:12:16.081Z,10.06
2022-11-16T18:14:59.822Z,10.08
2022-11-16T18:17:32.493Z,10.09
2022-11-16T18:20:00.213Z,10.12
2022-11-16T18:22:27.902Z,10.13
2022-11-16T18:24:55.558Z,10.13
2022-11-16T18:27:24.550Z,10.14
2022-11-16T18:29:52.222Z,10.13
2022-11-16T18:32:20.027Z,10.14
2022-11-16T18:34:47.708Z,10.17
2022-11-16T18:37:15.384Z,10.17
2022-11-16T18:39:43.004Z,10.17
2022-11-16T18:42:12.603Z,10.17
2022-11-16T18:44:41.606Z,10.17
2022-11-16T18:47:09.219Z,10.17
2022-11-16T18:49:36.853Z,10.17
2022-11-16T18:52:04.877Z,10.15
2022-11-16T18:54:32.341Z,10.12
2022-11-16T18:56:59.963Z,10.11
2022-11-16T18:59:27.713Z,10.10
2022-11-16T19:01:56.841Z,10.10
2022-11-16T19:04:24.707Z,10.12
2022-11-16T19:06:52.407Z,10.13
2022-11-16T19:09:20.080Z,10.14
2022-11-16T19:11:47.692Z,10.17
2022-11-16T19:14:15.342Z,10.17
2022-11-16T19:16:52.518Z,10.19
2022-11-16T19:19:25.357Z,10.18
2022-11-16T19:21:53.091Z,10.20
2022-11-16T19:24:20.795Z,10.18
2022-11-16T19:26:48.435Z,10.20
2022-11-16T19:29:16.132Z,10.19
2022-11-16T19:31:43.769Z,10.20
2022-11-16T19:34:12.847Z,10.21
2022-11-16T19:36:41.858Z,10.20
2022-11-16T19:39:09.561Z,10.20
2022-11-16T19:41:37.297Z,10.21
2022-11-16T19:44:04.956Z,10.21
2022-11-16T19:46:34.149Z,10.22
2022-11-16T19:49:02.416Z,10.22
2022-11-16T19:51:32.417Z,10.21
2022-11-16T19:54:02.899Z,10.21
2022-11-16T19:56:30.961Z,10.22
2022-11-16T19:58:58.831Z,10.21
2022-11-16T20:01:29.353Z,10.20
2022-11-16T20:03:58.508Z,10.18
2022-11-16T20:06:29.350Z,10.19
2022-11-16T20:09:00.610Z,10.17
2022-11-16T20:11:31.197Z,10.18
2022-11-16T20:13:59.630Z,10.17
2022-11-16T20:16:34.071Z,10.16
2022-11-16T20:19:06.510Z,10.17
2022-11-16T20:21:35.912Z,10.14
2022-11-16T20:24:07.138Z,10.14
2022-11-16T20:26:38.266Z,10.13
2022-11-16T20:29:05.935Z,10.13
2022-11-16T20:31:34.691Z,10.13
2022-11-16T20:34:04.087Z,10.13
2022-11-16T20:36:32.957Z,10.15
2022-11-16T20:39:01.818Z,10.16
2022-11-16T20:41:30.608Z,10.18
2022-11-16T20:44:02.238Z,10.19
2022-11-16T20:46:31.743Z,10.19
2022-11-16T20:49:00.864Z,10.21
2022-11-16T20:51:29.685Z,10.21
2022-11-16T20:53:57.692Z,10.22
2022-11-16T20:56:25.747Z,10.24
2022-11-16T20:58:53.219Z,10.23
2022-11-16T21:01:28.725Z,10.24
2022-11-16T21:03:57.007Z,10.24
2022-11-16T21:06:24.682Z,10.25
2022-11-16T21:08:52.390Z,10.24
2022-11-16T21:11:22.598Z,10.25
2022-11-16T21:14:08.255Z,10.25
2022-11-16T21:16:37.569Z,10.23
2022-11-16T21:19:05.465Z,10.22
2022-11-16T21:21:33.733Z,10.23
2022-11-16T21:24:01.687Z,10.23
2022-11-16T21:26:31.096Z,10.22
2022-11-16T21:28:59.633Z,10.21
2022-11-16T21:31:29.879Z,10.21
2022-11-16T21:34:00.514Z,10.20
2022-11-16T21:36:29.929Z,10.20
2022-11-16T21:38:58.440Z,10.20
2022-11-16T21:41:26.785Z,10.20
2022-11-16T21:43:54.721Z,10.20
2022-11-16T21:46:24.678Z,10.20
2022-11-16T21:48:52.848Z,10.19
2022-11-16T21:51:24.685Z,10.20
2022-11-16T21:53:52.539Z,10.19
2022-11-16T21:56:22.372Z,10.19
2022-11-16T21:58:52.654Z,10.18
2022-11-16T22:01:20.983Z,10.17
2022-11-16T22:04:08.740Z,10.16
2022-11-16T22:06:55.400Z,10.14
2022-11-16T22:09:23.089Z,10.15
2022-11-16T22:11:50.738Z,10.14
2022-11-16T22:14:18.407Z,10.14
2022-11-16T22:16:46.090Z,10.13
2022-11-16T22:19:13.771Z,10.14
2022-11-16T22:21:42.821Z,10.14
2022-11-16T22:24:10.466Z,10.15
2022-11-16T22:26:39.865Z,10.14
2022-11-16T22:29:07.567Z,10.15
2022-11-16T22:31:36.054Z,10.15
2022-11-16T22:34:04.004Z,10.16
2022-11-16T22:36:31.690Z,10.16
2022-11-16T22:39:01.993Z,10.15
2022-11-16T22:41:29.676Z,10.16
2022-11-16T22:43:57.330Z,10.16
2022-11-16T22:46:24.953Z,10.15
2022-11-16T22:48:52.595Z,10.15
2022-11-16T22:51:22.380Z,10.16
2022-11-16T22:53:54.045Z,10.16
2022-11-16T22:56:23.266Z,10.14
2022-11-16T22:58:51.363Z,10.13
2022-11-16T23:01:19.155Z,10.13
2022-11-16T23:03:47.361Z,10.08
2022-11-16T23:06:15.137Z,10.06
2022-11-16T23:08:42.866Z,10.06
2022-11-16T23:11:30.984Z,10.04
2022-11-16T23:14:17.945Z,10.01
2022-11-16T23:16:46.078Z,9.96
2022-11-16T23:19:28.662Z,9.96
2022-11-16T23:22:14.817Z,9.92
2022-11-16T23:25:00.036Z,9.91
2022-11-16T23:27:38.626Z,9.90
2022-11-16T23:30:12.881Z,9.89
2022-11-16T23:32:41.589Z,9.87
2022-11-16T23:35:10.975Z,9.87
2022-11-16T23:37:51.490Z,9.88
2022-11-16T23:40:19.616Z,9.85
2022-11-16T23:43:04.454Z,9.86
2022-11-16T23:45:33.704Z,9.81
2022-11-16T23:48:01.454Z,9.79
2022-11-16T23:50:29.230Z,9.77
2022-11-16T23:52:56.894Z,9.78
2022-11-16T23:55:24.563Z,9.76
2022-11-16T23:57:52.330Z,9.76
